Time;durP1;ratioP1;P1;durP2;ratioP2;P2;SDS_P1;SDS_P2;PMS_P1;PMS_P2;Temp;Humidity;BMP_temperature;BMP_pressure;BME280_temperature;BME280_humidity;BME280_pressure;Samples;Min_cycle;Max_cycle;Signal;HPM_P1;HPM_P2
2022/09/03 00:00:52;;;;;;;;;;;;;;;20.57;69.27;97715.03;5061056;28;19956;-61
2022/09/03 00:03:20;;;;;;;;;;;;;;;20.56;69.40;97713.44;5061278;28;19960;-61
2022/09/03 00:05:48;;;;;;;;;;;;;;;20.59;69.41;97718.22;5064234;28;19940;-60
2022/09/03 00:08:20;;;;;;;;;;;;;;;20.64;69.11;97715.28;5064725;28;19936;-60
2022/09/03 00:10:50;;;;;;;;;;;;;;;20.59;69.10;97711.97;5060945;28;19921;-61
2022/09/03 00:13:21;;;;;;;;;;;;;;;20.62;68.96;97708.59;5060956;28;20108;-61
2022/09/03 00:15:47;;;;;;;;;;;;;;;20.37;68.96;97700.34;5052678;28;19984;-61
2022/09/03 00:18:17;;;;;;;;;;;;;;;20.21;70.91;97696.63;5053072;28;19929;-62
2022/09/03 00:20:44;;;;;;;;;;;;;;;20.33;70.85;97710.28;5052580;28;20023;-60
2022/09/03 00:23:14;;;;;;;;;;;;;;;20.40;70.39;97705.13;5052761;28;20004;-60
2022/09/03 00:25:42;;;;;;;;;;;;;;;20.46;69.88;97709.22;5066615;28;19925;-60
2022/09/03 00:28:12;;;;;;;;;;;;;;;20.50;69.68;97714.78;5060576;28;19952;-60
2022/09/03 00:30:41;;;;;;;;;;;;;;;20.51;69.47;97715.56;5062639;28;19925;-60
2022/09/03 00:33:12;;;;;;;;;;;;;;;20.53;69.23;97713.31;5063888;28;19957;-60
2022/09/03 00:35:42;;;;;;;;;;;;;;;20.52;69.25;97712.50;5061712;28;19925;-62
2022/09/03 00:38:09;;;;;;;;;;;;;;;20.52;69.10;97711.75;5059246;28;19949;-61
2022/09/03 00:40:42;;;;;;;;;;;;;;;20.48;69.09;97711.63;5061971;28;19936;-60
2022/09/03 00:43:15;;;;;;;;;;;;;;;20.48;69.00;97710.81;5063738;28;19925;-61
2022/09/03 00:45:47;;;;;;;;;;;;;;;20.49;68.88;97706.97;5060886;28;19925;-60
2022/09/03 00:48:18;;;;;;;;;;;;;;;20.41;69.05;97719.47;5060154;28;19951;-59
2022/09/03 00:50:52;;;;;;;;;;;;;;;20.41;69.07;97717.56;5061730;28;19929;-60
2022/09/03 00:53:24;;;;;;;;;;;;;;;20.37;69.22;97724.75;5063477;28;19948;-60
2022/09/03 00:55:57;;;;;;;;;;;;;;;20.37;69.10;97726.69;5059019;28;19955;-61
2022/09/03 00:58:32;;;;;;;;;;;;;;;20.44;68.91;97726.94;5060052;28;19925;-60
2022/09/03 01:01:00;;;;;;;;;;;;;;;20.39;68.88;97724.44;5063256;28;19952;-60
2022/09/03 01:03:32;;;;;;;;;;;;;;;20.31;68.99;97723.38;5062670;28;19929;-60
2022/09/03 01:06:10;;;;;;;;;;;;;;;20.29;68.93;97725.63;5059471;28;20084;-61
2022/09/03 01:08:49;;;;;;;;;;;;;;;20.35;68.56;97729.75;5061095;28;20016;-60
2022/09/03 01:11:20;;;;;;;;;;;;;;;20.34;68.44;97725.44;5063341;28;19951;-60
2022/09/03 01:13:49;;;;;;;;;;;;;;;20.37;68.26;97726.69;5059937;28;19929;-61
2022/09/03 01:16:21;;;;;;;;;;;;;;;20.30;68.25;97737.28;5059805;28;19921;-60
2022/09/03 01:18:50;;;;;;;;;;;;;;;20.27;68.24;97727.88;5059690;28;19960;-61
2022/09/03 01:21:30;;;;;;;;;;;;;;;20.24;68.39;97727.72;5059597;28;19929;-60
2022/09/03 01:24:12;;;;;;;;;;;;;;;20.21;68.61;97723.72;5051014;28;19989;-61
2022/09/03 01:26:53;;;;;;;;;;;;;;;20.25;68.67;97724.66;5058998;28;19960;-61
2022/09/03 01:29:24;;;;;;;;;;;;;;;20.21;68.64;97718.31;5062710;28;19956;-60
2022/09/03 01:31:58;;;;;;;;;;;;;;;20.22;68.75;97719.09;5059236;28;19932;-61
2022/09/03 01:34:31;;;;;;;;;;;;;;;20.17;68.96;97714.69;5059645;28;19960;-60
2022/09/03 01:37:05;;;;;;;;;;;;;;;20.20;69.08;97718.66;5062800;28;19996;-61
2022/09/03 01:39:36;;;;;;;;;;;;;;;20.14;69.27;97720.78;5061320;28;19968;-60
2022/09/03 01:42:16;;;;;;;;;;;;;;;20.08;69.48;97727.50;5059123;28;19925;-61
2022/09/03 01:44:54;;;;;;;;;;;;;;;20.12;69.25;97714.88;5061554;28;19967;-60
2022/09/03 01:47:31;;;;;;;;;;;;;;;20.09;69.39;97723.66;5062471;28;19956;-60
2022/09/03 01:50:00;;;;;;;;;;;;;;;20.12;69.47;97730.34;5058853;28;20016;-60
2022/09/03 01:52:37;;;;;;;;;;;;;;;20.11;69.39;97720.63;5059411;28;19960;-60
2022/09/03 01:55:10;;;;;;;;;;;;;;;20.10;69.49;97721.75;5062099;28;20015;-60
2022/09/03 01:57:46;;;;;;;;;;;;;;;20.10;69.40;97722.53;5060153;28;19932;-61
2022/09/03 02:00:15;;;;;;;;;;;;;;;20.11;69.60;97723.34;5058819;28;19925;-60
2022/09/03 02:02:42;;;;;;;;;;;;;;;20.02;70.04;97712.56;5061193;28;19967;-60
2022/09/03 02:05:10;;;;;;;;;;;;;;;19.93;70.63;97712.59;5062027;28;19995;-60
2022/09/03 02:07:38;;;;;;;;;;;;;;;19.91;70.62;97714.84;5060287;28;19951;-60
2022/09/03 02:10:06;;;;;;;;;;;;;;;19.93;70.51;97714.50;5058791;28;20031;-61
2022/09/03 02:12:33;;;;;;;;;;;;;;;19.98;70.78;97708.91;5060021;28;19963;-60
2022/09/03 02:15:02;;;;;;;;;;;;;;;20.00;70.48;97713.97;5061988;28;19956;-61
2022/09/03 02:17:31;;;;;;;;;;;;;;;20.00;70.48;97712.06;5061178;28;19931;-61
2022/09/03 02:19:58;;;;;;;;;;;;;;;19.90;70.94;97707.03;5058354;28;19955;-61
2022/09/03 02:22:25;;;;;;;;;;;;;;;19.90;70.77;97704.31;5058892;28;19964;-60
2022/09/03 02:24:52;;;;;;;;;;;;;;;19.96;70.83;97713.84;5061612;28;20004;-60
2022/09/03 02:27:19;;;;;;;;;;;;;;;19.93;70.75;97712.59;5061826;28;19959;-61
2022/09/03 02:29:45;;;;;;;;;;;;;;;19.92;70.98;97705.59;5058403;28;19932;-61
2022/09/03 02:32:13;;;;;;;;;;;;;;;19.92;70.81;97711.03;5057986;28;19984;-62
2022/09/03 02:34:41;;;;;;;;;;;;;;;19.93;70.81;97711.78;5060466;28;19984;-60
2022/09/03 02:37:11;;;;;;;;;;;;;;;19.92;70.85;97704.81;5061620;28;19929;-60
2022/09/03 02:39:38;;;;;;;;;;;;;;;19.91;70.92;97714.84;5059114;28;19925;-60
2022/09/03 02:42:05;;;;;;;;;;;;;;;19.89;71.24;97702.75;5058143;28;20329;-61
2022/09/03 02:44:33;;;;;;;;;;;;;;;19.90;71.07;97710.53;5059190;28;19921;-60
2022/09/03 02:47:00;;;;;;;;;;;;;;;19.83;71.49;97709.47;5061393;28;19952;-60
2022/09/03 02:49:27;;;;;;;;;;;;;;;19.76;71.79;97711.91;5061109;28;19976;-60
2022/09/03 02:51:57;;;;;;;;;;;;;;;19.78;72.02;97707.72;5058049;28;19940;-60
2022/09/03 02:54:24;;;;;;;;;;;;;;;19.75;72.10;97699.47;5058255;28;19959;-62
2022/09/03 02:56:51;;;;;;;;;;;;;;;19.74;72.50;97701.41;5061765;28;19943;-61
2022/09/03 02:59:18;;;;;;;;;;;;;;;19.75;72.14;97707.59;5061665;28;19931;-61
2022/09/03 03:01:44;;;;;;;;;;;;;;;19.74;72.53;97711.44;5058545;28;19925;-61
2022/09/03 03:04:11;;;;;;;;;;;;;;;19.69;72.78;97700.78;5058080;28;20644;-60
2022/09/03 03:06:37;;;;;;;;;;;;;;;19.60;73.62;97698.09;5059903;28;19958;-61
2022/09/03 03:09:05;;;;;;;;;;;;;;;19.57;73.63;97700.69;5061506;28;19924;-60
2022/09/03 03:11:32;;;;;;;;;;;;;;;19.57;73.92;97698.75;5060285;28;19925;-61
2022/09/03 03:13:58;;;;;;;;;;;;;;;19.58;73.88;97708.50;5058046;28;19932;-60
2022/09/03 03:16:25;;;;;;;;;;;;;;;19.61;73.66;97710.53;5057264;28;19983;-61
2022/09/03 03:18:51;;;;;;;;;;;;;;;19.67;73.55;97716.56;5064292;28;19960;-60
2022/09/03 03:21:19;;;;;;;;;;;;;;;19.64;73.98;97709.91;5065519;28;19925;-61
2022/09/03 03:23:45;;;;;;;;;;;;;;;19.60;73.82;97722.50;5062193;28;20408;-61
2022/09/03 03:26:14;;;;;;;;;;;;;;;19.63;73.74;97723.75;5062012;28;19956;-60
2022/09/03 03:28:41;;;;;;;;;;;;;;;19.56;74.29;97729.66;5064237;28;19951;-60
2022/09/03 03:31:08;;;;;;;;;;;;;;;19.51;74.69;97726.34;5064959;28;19947;-60
2022/09/03 03:33:34;;;;;;;;;;;;;;;19.55;74.31;97725.41;5063517;28;19920;-61
2022/09/03 03:36:04;;;;;;;;;;;;;;;19.51;74.45;97712.81;5061867;28;19955;-61
2022/09/03 03:38:30;;;;;;;;;;;;;;;19.51;74.61;97712.81;5063003;28;20633;-61
2022/09/03 03:40:56;;;;;;;;;;;;;;;19.47;74.67;97715.38;5065164;28;19971;-60
2022/09/03 03:43:24;;;;;;;;;;;;;;;19.50;74.73;97713.91;5065108;28;19931;-61
2022/09/03 03:45:55;;;;;;;;;;;;;;;19.38;75.32;97709.97;5053312;28;20599;-61
2022/09/03 03:48:22;;;;;;;;;;;;;;;19.40;75.40;97715.88;5053245;28;19960;-61
2022/09/03 03:50:48;;;;;;;;;;;;;;;19.35;75.75;97713.31;5061247;28;19967;-60
2022/09/03 03:53:14;;;;;;;;;;;;;;;19.40;75.81;97720.53;5061362;28;19925;-60
2022/09/03 03:55:41;;;;;;;;;;;;;;;19.29;76.30;97716.53;5069429;28;19964;-60
2022/09/03 03:58:08;;;;;;;;;;;;;;;19.34;76.07;97719.84;5061338;28;19932;-61
2022/09/03 04:00:37;;;;;;;;;;;;;;;19.35;75.89;97723.34;5062826;28;19975;-60
2022/09/03 04:03:03;;;;;;;;;;;;;;;19.34;76.04;97722.56;5064658;28;19924;-61
2022/09/03 04:05:30;;;;;;;;;;;;;;;19.40;75.63;97721.28;5063529;28;19932;-61
2022/09/03 04:08:01;;;;;;;;;;;;;;;19.23;76.32;97724.03;5061064;28;19959;-61
2022/09/03 04:10:27;;;;;;;;;;;;;;;19.33;76.32;97731.81;5061564;28;19933;-60
2022/09/03 04:12:53;;;;;;;;;;;;;;;19.23;77.02;97732.16;5064323;28;19959;-60
2022/09/03 04:15:20;;;;;;;;;;;;;;;19.23;76.95;97718.63;5064468;28;19993;-60
2022/09/03 04:17:47;;;;;;;;;;;;;;;19.22;77.08;97711.59;5061091;28;19964;-61
2022/09/03 04:20:14;;;;;;;;;;;;;;;19.10;77.81;97718.81;5060910;28;19964;-61
2022/09/03 04:22:40;;;;;;;;;;;;;;;19.14;77.50;97717.84;5063125;28;19925;-60
2022/09/03 04:25:07;;;;;;;;;;;;;;;19.20;77.16;97721.97;5070410;28;20003;-60
2022/09/03 04:27:33;;;;;;;;;;;;;;;19.25;76.83;97718.28;5062721;28;19963;-61
2022/09/03 04:30:00;;;;;;;;;;;;;;;19.24;76.95;97714.81;5060696;28;19925;-60
2022/09/03 04:35:12;;;;;;;;;;;;;;;19.26;76.50;97722.59;5064249;28;19960;-61
2022/09/03 04:37:39;;;;;;;;;;;;;;;19.27;76.49;97735.81;5061847;28;19952;-61
2022/09/03 04:40:05;;;;;;;;;;;;;;;19.27;76.61;97721.47;5060640;28;19921;-60
2022/09/03 04:42:32;;;;;;;;;;;;;;;19.29;76.40;97733.56;5061803;28;19925;-61
2022/09/03 04:44:58;;;;;;;;;;;;;;;19.30;76.47;97731.66;5064057;28;20782;-61
2022/09/03 04:47:26;;;;;;;;;;;;;;;19.31;76.15;97731.31;5063524;28;19964;-60
2022/09/03 04:49:54;;;;;;;;;;;;;;;19.31;76.19;97725.91;5060251;28;19956;-60
2022/09/03 04:52:21;;;;;;;;;;;;;;;19.21;76.70;97734.41;5060292;28;19994;-61
2022/09/03 04:54:48;;;;;;;;;;;;;;;19.26;76.53;97736.94;5069776;28;19974;-60
2022/09/03 04:57:14;;;;;;;;;;;;;;;19.27;76.37;97735.81;5063707;28;19960;-61
2022/09/03 04:59:41;;;;;;;;;;;;;;;19.20;76.67;97732.81;5061578;28;20579;-61
2022/09/03 05:02:08;;;;;;;;;;;;;;;19.19;76.71;97733.13;5060451;28;19957;-62
2022/09/03 05:04:35;;;;;;;;;;;;;;;19.13;77.21;97724.38;5061785;28;19921;-60
2022/09/03 05:07:01;;;;;;;;;;;;;;;18.94;78.41;97737.47;5063666;28;19939;-60
2022/09/03 05:09:29;;;;;;;;;;;;;;;18.95;78.73;97736.34;5062844;28;19925;-61
2022/09/03 05:11:56;;;;;;;;;;;;;;;18.57;81.35;97736.22;5059883;28;19979;-60
2022/09/03 05:14:22;;;;;;;;;;;;;;;18.52;82.19;97744.50;5060108;28;19967;-61
2022/09/03 05:16:49;;;;;;;;;;;;;;;18.54;82.83;97744.19;5051724;28;20424;-60
2022/09/03 05:19:15;;;;;;;;;;;;;;;18.66;81.82;97742.44;5051665;28;20052;-60
2022/09/03 05:21:42;;;;;;;;;;;;;;;18.81;80.82;97735.75;5051732;28;19984;-61
2022/09/03 05:24:10;;;;;;;;;;;;;;;18.94;79.67;97745.59;5056014;28;19959;-60
2022/09/03 05:26:38;;;;;;;;;;;;;;;18.98;79.66;97738.41;5063080;28;19944;-60
2022/09/03 05:29:06;;;;;;;;;;;;;;;19.04;79.49;97736.34;5063245;28;19931;-61
2022/09/03 05:31:33;;;;;;;;;;;;;;;18.99;79.72;97737.31;5061496;28;19929;-61
2022/09/03 05:34:02;;;;;;;;;;;;;;;18.93;80.59;97737.81;5059681;28;19960;-60
2022/09/03 05:36:29;;;;;;;;;;;;;;;18.90;80.73;97733.84;5060248;28;19960;-61
2022/09/03 05:38:56;;;;;;;;;;;;;;;18.83;81.69;97737.03;5062736;28;19988;-61
2022/09/03 05:41:23;;;;;;;;;;;;;;;18.98;80.52;97737.63;5062293;28;19975;-60
2022/09/03 05:43:54;;;;;;;;;;;;;;;18.87;82.12;97742.59;5051013;28;19932;-60
2022/09/03 05:46:25;;;;;;;;;;;;;;;18.75;82.41;97740.50;5051007;28;19929;-61
2022/09/03 05:48:51;;;;;;;;;;;;;;;18.82;82.11;97745.44;5058925;28;19932;-60
2022/09/03 05:51:18;;;;;;;;;;;;;;;18.95;81.26;97740.97;5059146;28;19996;-60
2022/09/03 05:53:45;;;;;;;;;;;;;;;19.09;80.88;97747.81;5061698;28;19999;-61
2022/09/03 05:56:16;;;;;;;;;;;;;;;19.15;80.33;97740.31;5064372;28;19967;-62
2022/09/03 05:58:44;;;;;;;;;;;;;;;19.14;80.63;97734.09;5061553;28;19925;-61
2022/09/03 06:01:13;;;;;;;;;;;;;;;19.01;81.34;97742.41;5062487;28;19921;-61
2022/09/03 06:03:39;;;;;;;;;;;;;;;18.93;82.06;97738.59;5059938;28;19925;-60
2022/09/03 06:06:06;;;;;;;;;;;;;;;18.90;82.49;97741.16;5058942;28;19968;-61
2022/09/03 06:08:33;;;;;;;;;;;;;;;18.59;85.47;97736.72;5060086;28;19925;-61
2022/09/03 06:10:59;;;;;;;;;;;;;;;18.58;85.15;97747.84;5062357;28;19929;-60
2022/09/03 06:13:25;;;;;;;;;;;;;;;18.77;84.35;97745.63;5061835;28;19947;-61
2022/09/03 06:15:55;;;;;;;;;;;;;;;18.95;83.41;97747.19;5058682;28;19952;-61
2022/09/03 06:18:23;;;;;;;;;;;;;;;18.96;82.90;97759.59;5058782;28;19925;-60
2022/09/03 06:20:53;;;;;;;;;;;;;;;18.60;85.35;97751.06;5058759;28;19963;-60
2022/09/03 06:23:20;;;;;;;;;;;;;;;18.65;85.33;97756.28;5058629;28;19925;-60
2022/09/03 06:25:46;;;;;;;;;;;;;;;18.33;88.33;97747.50;5066657;28;20542;-60
2022/09/03 06:28:13;;;;;;;;;;;;;;;18.44;87.34;97753.41;5058773;28;19925;-61
2022/09/03 06:30:40;;;;;;;;;;;;;;;18.57;86.74;97743.56;5060873;28;19964;-62
2022/09/03 06:33:07;;;;;;;;;;;;;;;18.77;85.72;97753.72;5061989;28;19968;-60
2022/09/03 06:35:34;;;;;;;;;;;;;;;19.08;83.55;97750.81;5060617;28;19932;-60
2022/09/03 06:38:01;;;;;;;;;;;;;;;19.13;82.97;97759.56;5058522;28;20625;-60
2022/09/03 06:40:28;;;;;;;;;;;;;;;18.98;84.32;97767.41;5059216;28;20028;-61
2022/09/03 06:43:02;;;;;;;;;;;;;;;19.23;83.32;97775.47;5060786;28;20694;-62
2022/09/03 06:45:28;;;;;;;;;;;;;;;19.19;82.97;97769.09;5061247;28;19936;-61
2022/09/03 06:47:55;;;;;;;;;;;;;;;19.75;80.83;97759.88;5058397;28;19944;-60
2022/09/03 06:50:21;;;;;;;;;;;;;;;20.05;78.35;97757.19;5073997;28;20390;-60
2022/09/03 06:52:53;;;;;;;;;;;;;;;20.19;77.73;97763.94;5062798;28;19971;-60
2022/09/03 06:55:20;;;;;;;;;;;;;;;20.41;76.90;97771.81;5072298;28;19925;-60
2022/09/03 06:57:46;;;;;;;;;;;;;;;20.72;74.25;97771.41;5062924;28;19936;-60
2022/09/03 07:00:13;;;;;;;;;;;;;;;20.87;72.89;97773.53;5062840;28;20176;-61
2022/09/03 07:02:40;;;;;;;;;;;;;;;20.81;72.84;97785.72;5064432;28;19925;-60
2022/09/03 07:05:07;;;;;;;;;;;;;;;20.91;72.86;97777.16;5065740;28;19925;-61
2022/09/03 07:07:33;;;;;;;;;;;;;;;20.85;73.04;97773.06;5064310;28;19948;-61
2022/09/03 07:10:01;;;;;;;;;;;;;;;20.82;73.15;97764.78;5062122;28;20020;-60
2022/09/03 07:12:27;;;;;;;;;;;;;;;20.99;72.63;97768.13;5062814;28;19932;-62
2022/09/03 07:14:54;;;;;;;;;;;;;;;20.62;72.33;97766.38;5065577;28;19979;-60
2022/09/03 07:17:20;;;;;;;;;;;;;;;20.61;74.36;97755.88;5065721;28;19920;-60
2022/09/03 07:19:46;;;;;;;;;;;;;;;20.82;72.46;97753.94;5062302;28;19933;-61
2022/09/03 07:22:13;;;;;;;;;;;;;;;20.35;75.37;97765.00;5062073;28;19980;-60
2022/09/03 07:24:40;;;;;;;;;;;;;;;20.13;76.78;97761.75;5069304;28;19926;-60
2022/09/03 07:27:08;;;;;;;;;;;;;;;20.33;77.77;97753.66;5065460;28;19921;-60
2022/09/03 07:29:34;;;;;;;;;;;;;;;20.50;75.12;97758.19;5063758;28;19952;-60
2022/09/03 07:32:00;;;;;;;;;;;;;;;20.48;75.28;97765.06;5061618;28;19924;-61
2022/09/03 07:34:28;;;;;;;;;;;;;;;20.19;75.55;97769.38;5062135;28;19972;-61
2022/09/03 07:36:54;;;;;;;;;;;;;;;20.35;76.59;97775.03;5065228;28;19991;-60
2022/09/03 07:39:21;;;;;;;;;;;;;;;20.54;75.32;97774.59;5065247;28;19932;-60
2022/09/03 07:41:47;;;;;;;;;;;;;;;20.67;73.67;97782.47;5061842;28;19925;-61
2022/09/03 07:44:18;;;;;;;;;;;;;;;20.68;72.16;97775.13;5061684;28;19925;-60
2022/09/03 07:46:46;;;;;;;;;;;;;;;20.09;73.08;97780.59;5064278;28;19929;-61
2022/09/03 07:49:12;;;;;;;;;;;;;;;19.95;74.84;97782.75;5065191;28;19925;-61
2022/09/03 07:51:39;;;;;;;;;;;;;;;19.79;74.84;97770.84;5062615;28;19929;-60
2022/09/03 07:54:08;;;;;;;;;;;;;;;19.35;76.89;97777.50;5065115;28;19925;-61
2022/09/03 07:56:35;;;;;;;;;;;;;;;19.43;78.52;97779.44;5065021;28;19925;-60
2022/09/03 07:59:01;;;;;;;;;;;;;;;19.66;78.09;97772.66;5064864;28;19927;-59
2022/09/03 08:01:31;;;;;;;;;;;;;;;19.69;78.22;97768.50;5064079;28;19925;-61
2022/09/03 08:03:58;;;;;;;;;;;;;;;19.72;78.18;97775.97;5060732;28;19920;-60
2022/09/03 08:06:26;;;;;;;;;;;;;;;19.87;78.17;97778.94;5061516;28;19968;-61
2022/09/03 08:08:55;;;;;;;;;;;;;;;19.74;78.36;97784.59;5064758;28;19948;-61
2022/09/03 08:11:22;;;;;;;;;;;;;;;19.66;77.61;97783.50;5064991;28;19947;-61
2022/09/03 08:13:49;;;;;;;;;;;;;;;19.57;75.87;97779.22;5061303;28;19956;-60
2022/09/03 08:16:17;;;;;;;;;;;;;;;19.61;76.82;97778.28;5061043;28;19932;-60
2022/09/03 08:18:46;;;;;;;;;;;;;;;19.72;76.55;97779.50;5063518;28;19925;-61
2022/09/03 08:21:14;;;;;;;;;;;;;;;19.77;75.35;97782.03;5064347;28;19984;-61
2022/09/03 08:23:41;;;;;;;;;;;;;;;20.08;74.53;97781.72;5062008;28;19925;-62
2022/09/03 08:26:07;;;;;;;;;;;;;;;20.19;72.86;97796.47;5066234;28;19925;-61
2022/09/03 08:28:34;;;;;;;;;;;;;;;20.17;73.07;97793.31;5062100;28;19951;-60
2022/09/03 08:31:04;;;;;;;;;;;;;;;20.13;72.66;97786.94;5064112;28;20421;-61
2022/09/03 08:33:37;;;;;;;;;;;;;;;19.91;74.24;97781.81;5062747;28;19951;-60
2022/09/03 08:36:06;;;;;;;;;;;;;;;19.52;74.49;97782.94;5060507;28;19947;-61
2022/09/03 08:38:32;;;;;;;;;;;;;;;19.45;76.82;97788.03;5061493;28;19971;-60
2022/09/03 08:41:03;;;;;;;;;;;;;;;19.33;77.84;97791.38;5063754;28;20013;-61
2022/09/03 08:43:30;;;;;;;;;;;;;;;19.31;79.30;97796.31;5062787;28;19929;-60
2022/09/03 08:45:58;;;;;;;;;;;;;;;19.35;79.94;97799.19;5060176;28;19921;-60
2022/09/03 08:48:25;;;;;;;;;;;;;;;19.31;80.12;97798.25;5060422;28;19931;-60
2022/09/03 08:50:57;;;;;;;;;;;;;;;19.11;82.29;97788.06;5063883;28;19991;-60
2022/09/03 08:53:30;;;;;;;;;;;;;;;19.16;83.81;97786.00;5063438;28;19997;-60
2022/09/03 08:55:59;;;;;;;;;;;;;;;19.38;83.27;97793.91;5059909;28;20000;-60
2022/09/03 08:58:26;;;;;;;;;;;;;;;19.40;84.19;97789.00;5060231;28;19993;-60
2022/09/03 09:01:00;;;;;;;;;;;;;;;19.62;81.74;97781.78;5063219;28;20020;-60
2022/09/03 09:03:53;;;;;;;;;;;;;;;19.89;80.31;97784.06;5062814;28;19928;-60
2022/09/03 09:06:23;;;;;;;;;;;;;;;19.48;83.72;97778.47;5024015;28;19940;-61
2022/09/03 09:08:56;;;;;;;;;;;;;;;19.67;84.40;97779.69;5051484;28;19957;-60
2022/09/03 09:11:29;;;;;;;;;;;;;;;19.81;84.22;97774.81;5051628;28;19925;-62
2022/09/03 09:13:58;;;;;;;;;;;;;;;19.82;83.18;97765.59;5051464;28;19929;-61
2022/09/03 09:16:31;;;;;;;;;;;;;;;19.95;84.48;97769.19;5058805;28;19960;-61
2022/09/03 09:19:03;;;;;;;;;;;;;;;20.02;83.16;97763.25;5062884;28;19935;-60
2022/09/03 09:21:32;;;;;;;;;;;;;;;20.13;81.41;97767.19;5061977;28;19972;-61
2022/09/03 09:24:02;;;;;;;;;;;;;;;20.30;80.87;97764.41;5062101;28;19928;-60
2022/09/03 09:26:29;;;;;;;;;;;;;;;20.34;80.79;97770.72;5063003;28;19932;-61
2022/09/03 09:28:58;;;;;;;;;;;;;;;20.34;81.10;97770.72;5062709;28;19928;-61
2022/09/03 09:31:25;;;;;;;;;;;;;;;20.35;82.25;97773.13;5062464;28;19920;-61
2022/09/03 09:33:51;;;;;;;;;;;;;;;20.20;82.67;97765.53;5059001;28;20417;-61
2022/09/03 09:36:19;;;;;;;;;;;;;;;20.34;81.61;97765.31;5059323;28;19925;-61
2022/09/03 09:38:47;;;;;;;;;;;;;;;20.40;81.58;97767.50;5062026;28;20298;-61
2022/09/03 09:41:16;;;;;;;;;;;;;;;20.36;82.15;97755.72;5062776;28;19963;-61
2022/09/03 09:43:42;;;;;;;;;;;;;;;20.50;81.42;97762.81;5059947;28;20035;-60
2022/09/03 09:46:12;;;;;;;;;;;;;;;20.44;82.86;97754.06;5059028;28;19925;-61
2022/09/03 09:48:45;;;;;;;;;;;;;;;20.07;86.14;97754.94;5060947;28;19961;-61
2022/09/03 09:51:12;;;;;;;;;;;;;;;19.79;89.02;97743.75;5062505;28;19943;-60
2022/09/03 09:53:39;;;;;;;;;;;;;;;19.75;90.75;97749.03;5060147;28;19971;-61
2022/09/03 09:56:06;;;;;;;;;;;;;;;20.11;86.56;97753.16;5058957;28;20046;-61
2022/09/03 09:58:34;;;;;;;;;;;;;;;20.25;86.24;97749.06;5059863;28;19929;-61
2022/09/03 10:01:03;;;;;;;;;;;;;;;20.24;86.44;97744.00;5062255;28;19964;-61
2022/09/03 10:03:33;;;;;;;;;;;;;;;19.93;89.59;97741.59;5062122;28;19936;-61
2022/09/03 10:08:44;;;;;;;;;;;;;;;20.01;90.67;97737.28;5025874;28;19960;-60
2022/09/03 10:11:11;;;;;;;;;;;;;;;20.26;88.89;97736.34;5058572;28;19925;-62
2022/09/03 10:13:42;;;;;;;;;;;;;;;20.29;88.46;97741.91;5060296;28;19960;-60
2022/09/03 10:16:15;;;;;;;;;;;;;;;20.53;88.00;97745.88;5062235;28;19932;-61
2022/09/03 10:18:43;;;;;;;;;;;;;;;20.52;86.74;97734.22;5059375;28;20514;-61
2022/09/03 10:21:12;;;;;;;;;;;;;;;20.40;88.29;97737.66;5058556;28;20000;-61
2022/09/03 10:23:47;;;;;;;;;;;;;;;20.40;87.74;97736.88;5060255;28;19984;-60
2022/09/03 10:26:16;;;;;;;;;;;;;;;20.72;85.53;97733.41;5062289;28;19960;-61
2022/09/03 10:28:46;;;;;;;;;;;;;;;20.48;84.83;97732.50;5060897;28;19984;-61
2022/09/03 10:31:17;;;;;;;;;;;;;;;20.45;87.08;97728.56;5061799;28;19960;-60
2022/09/03 10:33:48;;;;;;;;;;;;;;;20.65;86.27;97735.06;5058782;28;19925;-60
2022/09/03 10:36:18;;;;;;;;;;;;;;;20.64;84.63;97742.41;5058378;28;19932;-61
2022/09/03 10:38:49;;;;;;;;;;;;;;;20.93;84.20;97733.38;5061069;28;19929;-60
2022/09/03 10:41:23;;;;;;;;;;;;;;;21.10;83.46;97738.69;5061768;28;19920;-60
2022/09/03 10:44:05;;;;;;;;;;;;;;;21.29;82.80;97735.44;5050098;28;20001;-60
2022/09/03 10:46:37;;;;;;;;;;;;;;;21.52;81.41;97725.75;5047723;28;19928;-61
2022/09/03 10:49:15;;;;;;;;;;;;;;;21.11;81.48;97736.75;5049945;28;19925;-61
2022/09/03 10:51:42;;;;;;;;;;;;;;;21.38;82.08;97731.50;5049922;28;19952;-60
2022/09/03 10:54:21;;;;;;;;;;;;;;;21.42;80.93;97737.03;5049744;28;19925;-61
2022/09/03 10:56:53;;;;;;;;;;;;;;;21.30;81.25;97737.81;5061131;28;19964;-61
2022/09/03 10:59:29;;;;;;;;;;;;;;;21.18;82.11;97737.78;5061609;28;19928;-61
2022/09/03 11:02:01;;;;;;;;;;;;;;;21.40;81.50;97734.69;5058040;28;19929;-60
2022/09/03 11:04:33;;;;;;;;;;;;;;;21.54;81.49;97726.97;5058412;28;19957;-61
2022/09/03 11:07:03;;;;;;;;;;;;;;;21.91;79.91;97724.31;5061447;28;20157;-61
2022/09/03 11:09:35;;;;;;;;;;;;;;;22.05;78.77;97719.31;5060609;28;19931;-61
2022/09/03 11:12:04;;;;;;;;;;;;;;;22.19;78.27;97721.69;5057737;28;19925;-61
2022/09/03 11:14:33;;;;;;;;;;;;;;;22.37;77.31;97714.84;5058705;28;19932;-60
2022/09/03 11:17:03;;;;;;;;;;;;;;;22.15;76.00;97713.41;5061343;28;20054;-61
2022/09/03 11:19:34;;;;;;;;;;;;;;;22.10;76.25;97704.72;5060533;28;20671;-61
2022/09/03 11:22:00;;;;;;;;;;;;;;;22.02;77.68;97703.69;5057788;28;20544;-61
2022/09/03 11:24:31;;;;;;;;;;;;;;;22.06;78.10;97705.34;5064417;28;19984;-61
2022/09/03 11:27:02;;;;;;;;;;;;;;;22.08;78.36;97702.31;5061108;28;19925;-61
2022/09/03 11:29:36;;;;;;;;;;;;;;;22.23;77.76;97696.16;5060636;28;19964;-60
2022/09/03 11:32:09;;;;;;;;;;;;;;;22.03;77.95;97694.41;5057465;28;20415;-60
2022/09/03 11:34:46;;;;;;;;;;;;;;;21.98;78.56;97698.13;5059238;28;19925;-61
2022/09/03 11:37:18;;;;;;;;;;;;;;;22.25;77.86;97702.03;5061389;28;19924;-61
2022/09/03 11:39:45;;;;;;;;;;;;;;;22.01;77.59;97710.25;5060962;28;19928;-61
2022/09/03 11:42:21;;;;;;;;;;;;;;;22.05;78.27;97714.66;5061449;28;19943;-61
2022/09/03 11:44:51;;;;;;;;;;;;;;;22.08;78.50;97705.03;5064438;28;19925;-62
2022/09/03 11:47:23;;;;;;;;;;;;;;;22.18;79.40;97704.56;5064764;28;19925;-60
2022/09/03 11:49:50;;;;;;;;;;;;;;;22.26;78.42;97698.19;5053011;28;19929;-60
2022/09/03 11:52:25;;;;;;;;;;;;;;;22.33;78.22;97692.16;5053256;28;19953;-62
2022/09/03 11:54:52;;;;;;;;;;;;;;;22.30;78.94;97704.53;5058900;28;19925;-62
2022/09/03 11:57:23;;;;;;;;;;;;;;;22.40;79.04;97698.63;5064893;28;19959;-62
2022/09/03 11:59:49;;;;;;;;;;;;;;;22.36;79.31;97700.44;5061481;28;19925;-62
2022/09/03 12:02:23;;;;;;;;;;;;;;;22.30;78.00;97701.03;5061319;28;19925;-62
2022/09/03 12:04:57;;;;;;;;;;;;;;;22.30;78.87;97701.81;5053132;28;19972;-62
2022/09/03 12:07:41;;;;;;;;;;;;;;;22.26;76.78;97703.63;5053087;28;19960;-63
2022/09/03 12:10:13;;;;;;;;;;;;;;;22.35;77.26;97701.56;5052573;28;19964;-61
2022/09/03 12:12:45;;;;;;;;;;;;;;;22.42;78.37;97698.28;5052716;28;19925;-61
2022/09/03 12:15:19;;;;;;;;;;;;;;;22.34;77.75;97700.00;5052718;28;19933;-61
2022/09/03 12:18:17;;;;;;;;;;;;;;;22.50;78.24;97695.41;5052499;28;19932;-61
2022/09/03 12:20:39;;;;;;;;;;;;;;;22.42;79.28;97690.09;5060639;28;19983;-61
2022/09/03 12:23:07;;;;;;;;;;;;;;;22.70;76.63;97690.94;5061168;28;20631;-61
2022/09/03 12:25:33;;;;;;;;;;;;;;;22.66;76.20;97689.25;5069038;28;19980;-61
2022/09/03 12:28:02;;;;;;;;;;;;;;;22.56;76.47;97685.84;5060943;28;20073;-61
2022/09/03 12:30:29;;;;;;;;;;;;;;;22.44;76.95;97688.63;5060928;28;19925;-61
2022/09/03 12:33:03;;;;;;;;;;;;;;;22.60;76.71;97686.75;5063954;28;19956;-62
2022/09/03 12:35:30;;;;;;;;;;;;;;;22.53;78.02;97685.75;5063102;28;19925;-62
2022/09/03 12:37:57;;;;;;;;;;;;;;;22.52;77.31;97676.03;5060195;28;19964;-60
2022/09/03 12:40:25;;;;;;;;;;;;;;;22.51;78.21;97672.50;5060241;28;20002;-61
2022/09/03 12:42:51;;;;;;;;;;;;;;;22.40;79.01;97660.53;5060295;28;19940;-60
2022/09/03 12:45:19;;;;;;;;;;;;;;;22.59;79.63;97652.50;5060275;28;19959;-60
2022/09/03 12:47:45;;;;;;;;;;;;;;;22.57;78.94;97659.44;5062877;28;19968;-61
2022/09/03 12:50:13;;;;;;;;;;;;;;;22.46;79.69;97653.72;5062214;28;19948;-60
2022/09/03 12:52:41;;;;;;;;;;;;;;;22.45;80.15;97660.28;5061132;28;19971;-61
2022/09/03 12:55:15;;;;;;;;;;;;;;;22.60;78.96;97650.56;5059549;28;19963;-62
2022/09/03 12:57:44;;;;;;;;;;;;;;;22.52;79.90;97651.53;5061085;28;19996;-61
2022/09/03 13:00:13;;;;;;;;;;;;;;;22.51;79.11;97647.22;5059992;28;19955;-60
2022/09/03 13:02:42;;;;;;;;;;;;;;;22.49;80.10;97655.72;5061858;28;19921;-60